sensor_id;sensor_type;location;lat;lon;timestamp;P1;durP1;ratioP1;P2;durP2;ratioP2
1360;SDS011;674;45.552;-122.600;2022-09-24T00:02:20;4.37;;;2.90;;
1360;SDS011;674;45.552;-122.600;2022-09-24T00:04:49;4.23;;;2.47;;
1360;SDS011;674;45.552;-122.600;2022-09-24T00:07:17;6.53;;;5.47;;
1360;SDS011;674;45.552;-122.600;2022-09-24T00:09:45;5.57;;;2.93;;
1360;SDS011;674;45.552;-122.600;2022-09-24T00:12:14;4.30;;;2.67;;
1360;SDS011;674;45.552;-122.600;2022-09-24T00:14:43;4.13;;;2.40;;
1360;SDS011;674;45.552;-122.600;2022-09-24T00:17:11;4.43;;;2.33;;
1360;SDS011;674;45.552;-122.600;2022-09-24T00:19:40;3.20;;;2.47;;
1360;SDS011;674;45.552;-122.600;2022-09-24T00:22:08;4.47;;;2.63;;
1360;SDS011;674;45.552;-122.600;2022-09-24T00:24:37;4.00;;;3.03;;
1360;SDS011;674;45.552;-122.600;2022-09-24T00:27:23;3.13;;;2.67;;
1360;SDS011;674;45.552;-122.600;2022-09-24T00:29:53;7.50;;;3.13;;
1360;SDS011;674;45.552;-122.600;2022-09-24T00:32:22;4.87;;;2.20;;
1360;SDS011;674;45.552;-122.600;2022-09-24T00:34:50;4.30;;;3.00;;
1360;SDS011;674;45.552;-122.600;2022-09-24T00:37:20;3.33;;;2.57;;
1360;SDS011;674;45.552;-122.600;2022-09-24T00:39:49;5.37;;;2.27;;
1360;SDS011;674;45.552;-122.600;2022-09-24T00:42:18;3.43;;;2.73;;
1360;SDS011;674;45.552;-122.600;2022-09-24T00:44:53;3.63;;;2.80;;
1360;SDS011;674;45.552;-122.600;2022-09-24T00:47:32;6.20;;;2.53;;
1360;SDS011;674;45.552;-122.600;2022-09-24T00:50:14;4.90;;;2.30;;
1360;SDS011;674;45.552;-122.600;2022-09-24T00:52:58;3.53;;;2.23;;
1360;SDS011;674;45.552;-122.600;2022-09-24T00:55:32;4.57;;;2.47;;
1360;SDS011;674;45.552;-122.600;2022-09-24T00:58:03;4.40;;;2.30;;
1360;SDS011;674;45.552;-122.600;2022-09-24T01:00:36;6.20;;;2.60;;
1360;SDS011;674;45.552;-122.600;2022-09-24T01:03:11;4.80;;;2.53;;
1360;SDS011;674;45.552;-122.600;2022-09-24T01:05:45;3.40;;;2.30;;
1360;SDS011;674;45.552;-122.600;2022-09-24T01:08:14;3.20;;;2.40;;
1360;SDS011;674;45.552;-122.600;2022-09-24T01:11:03;3.90;;;2.70;;
1360;SDS011;674;45.552;-122.600;2022-09-24T01:13:44;4.00;;;3.00;;
1360;SDS011;674;45.552;-122.600;2022-09-24T01:31:18;3.73;;;2.50;;
1360;SDS011;674;45.552;-122.600;2022-09-24T01:33:56;4.73;;;2.30;;
1360;SDS011;674;45.552;-122.600;2022-09-24T01:36:28;3.40;;;2.17;;
1360;SDS011;674;45.552;-122.600;2022-09-24T01:38:59;3.43;;;2.27;;
1360;SDS011;674;45.552;-122.600;2022-09-24T01:41:30;5.80;;;2.40;;
1360;SDS011;674;45.552;-122.600;2022-09-24T01:44:00;4.33;;;2.27;;
1360;SDS011;674;45.552;-122.600;2022-09-24T01:46:35;6.93;;;2.47;;
1360;SDS011;674;45.552;-122.600;2022-09-24T01:49:05;5.30;;;2.20;;
1360;SDS011;674;45.552;-122.600;2022-09-24T01:51:51;4.43;;;2.80;;
1360;SDS011;674;45.552;-122.600;2022-09-24T01:54:26;3.07;;;2.03;;
1360;SDS011;674;45.552;-122.600;2022-09-24T01:57:05;5.03;;;2.57;;
1360;SDS011;674;45.552;-122.600;2022-09-24T01:59:56;3.10;;;2.33;;
1360;SDS011;674;45.552;-122.600;2022-09-24T02:08:09;3.53;;;2.20;;
1360;SDS011;674;45.552;-122.600;2022-09-24T02:10:45;4.30;;;2.43;;
1360;SDS011;674;45.552;-122.600;2022-09-24T02:13:17;3.00;;;2.00;;
1360;SDS011;674;45.552;-122.600;2022-09-24T02:15:52;4.40;;;2.73;;
1360;SDS011;674;45.552;-122.600;2022-09-24T02:18:27;3.77;;;2.60;;
1360;SDS011;674;45.552;-122.600;2022-09-24T02:20:59;3.13;;;1.90;;
1360;SDS011;674;45.552;-122.600;2022-09-24T02:23:33;4.23;;;2.50;;
1360;SDS011;674;45.552;-122.600;2022-09-24T02:26:03;5.10;;;2.10;;
1360;SDS011;674;45.552;-122.600;2022-09-24T02:28:32;4.40;;;2.37;;
1360;SDS011;674;45.552;-122.600;2022-09-24T02:31:05;4.30;;;2.47;;
1360;SDS011;674;45.552;-122.600;2022-09-24T02:33:40;3.20;;;2.20;;
1360;SDS011;674;45.552;-122.600;2022-09-24T02:36:29;3.50;;;2.40;;
1360;SDS011;674;45.552;-122.600;2022-09-24T02:38:58;3.50;;;2.47;;
1360;SDS011;674;45.552;-122.600;2022-09-24T02:41:26;4.00;;;2.83;;
1360;SDS011;674;45.552;-122.600;2022-09-24T02:43:56;2.90;;;2.60;;
1360;SDS011;674;45.552;-122.600;2022-09-24T02:46:25;2.80;;;2.10;;
1360;SDS011;674;45.552;-122.600;2022-09-24T02:48:53;5.53;;;2.73;;
1360;SDS011;674;45.552;-122.600;2022-09-24T02:51:22;7.40;;;3.40;;
1360;SDS011;674;45.552;-122.600;2022-09-24T02:53:51;3.27;;;2.60;;
1360;SDS011;674;45.552;-122.600;2022-09-24T02:56:20;3.00;;;2.23;;
1360;SDS011;674;45.552;-122.600;2022-09-24T02:58:48;4.80;;;2.87;;
1360;SDS011;674;45.552;-122.600;2022-09-24T03:01:17;3.63;;;2.20;;
1360;SDS011;674;45.552;-122.600;2022-09-24T03:03:45;2.87;;;2.47;;
1360;SDS011;674;45.552;-122.600;2022-09-24T03:06:14;3.33;;;2.50;;
1360;SDS011;674;45.552;-122.600;2022-09-24T03:08:42;4.47;;;2.33;;
1360;SDS011;674;45.552;-122.600;2022-09-24T03:11:11;4.93;;;2.90;;
1360;SDS011;674;45.552;-122.600;2022-09-24T03:13:44;3.47;;;2.80;;
1360;SDS011;674;45.552;-122.600;2022-09-24T03:16:13;5.57;;;3.17;;
1360;SDS011;674;45.552;-122.600;2022-09-24T03:18:42;3.83;;;3.03;;
1360;SDS011;674;45.552;-122.600;2022-09-24T03:21:11;3.33;;;3.03;;
1360;SDS011;674;45.552;-122.600;2022-09-24T03:23:41;7.13;;;3.13;;
1360;SDS011;674;45.552;-122.600;2022-09-24T03:26:10;5.57;;;3.10;;
1360;SDS011;674;45.552;-122.600;2022-09-24T03:28:39;6.53;;;2.80;;
1360;SDS011;674;45.552;-122.600;2022-09-24T03:31:07;3.60;;;3.03;;
1360;SDS011;674;45.552;-122.600;2022-09-24T03:36:12;5.33;;;2.97;;
1360;SDS011;674;45.552;-122.600;2022-09-24T03:38:43;5.20;;;3.50;;
1360;SDS011;674;45.552;-122.600;2022-09-24T03:41:13;5.50;;;2.77;;
1360;SDS011;674;45.552;-122.600;2022-09-24T03:43:43;13.37;;;3.17;;
1360;SDS011;674;45.552;-122.600;2022-09-24T03:46:11;9.07;;;4.00;;
1360;SDS011;674;45.552;-122.600;2022-09-24T03:48:40;4.53;;;2.80;;
1360;SDS011;674;45.552;-122.600;2022-09-24T03:51:10;5.03;;;3.10;;
1360;SDS011;674;45.552;-122.600;2022-09-24T03:53:46;3.97;;;2.80;;
1360;SDS011;674;45.552;-122.600;2022-09-24T03:56:15;5.03;;;2.50;;
1360;SDS011;674;45.552;-122.600;2022-09-24T03:58:43;3.90;;;2.80;;
1360;SDS011;674;45.552;-122.600;2022-09-24T04:01:14;5.47;;;3.13;;
1360;SDS011;674;45.552;-122.600;2022-09-24T04:03:48;7.67;;;3.17;;
1360;SDS011;674;45.552;-122.600;2022-09-24T04:06:17;3.70;;;2.93;;
1360;SDS011;674;45.552;-122.600;2022-09-24T04:08:51;3.87;;;2.57;;
1360;SDS011;674;45.552;-122.600;2022-09-24T04:11:20;5.50;;;2.43;;
1360;SDS011;674;45.552;-122.600;2022-09-24T04:13:50;5.30;;;3.10;;
1360;SDS011;674;45.552;-122.600;2022-09-24T04:16:19;5.13;;;2.87;;
1360;SDS011;674;45.552;-122.600;2022-09-24T04:18:48;3.10;;;2.80;;
1360;SDS011;674;45.552;-122.600;2022-09-24T04:21:17;4.03;;;2.90;;
1360;SDS011;674;45.552;-122.600;2022-09-24T04:23:45;5.93;;;2.80;;
1360;SDS011;674;45.552;-122.600;2022-09-24T04:26:14;3.90;;;2.87;;
1360;SDS011;674;45.552;-122.600;2022-09-24T04:28:43;6.40;;;3.20;;
1360;SDS011;674;45.552;-122.600;2022-09-24T04:31:11;4.90;;;3.60;;
1360;SDS011;674;45.552;-122.600;2022-09-24T04:33:40;4.80;;;3.67;;
1360;SDS011;674;45.552;-122.600;2022-09-24T04:36:08;4.23;;;3.20;;
1360;SDS011;674;45.552;-122.600;2022-09-24T04:38:36;4.13;;;3.10;;
1360;SDS011;674;45.552;-122.600;2022-09-24T04:41:05;3.70;;;2.90;;
1360;SDS011;674;45.552;-122.600;2022-09-24T04:43:34;7.77;;;3.60;;
1360;SDS011;674;45.552;-122.600;2022-09-24T04:46:03;4.93;;;3.10;;
1360;SDS011;674;45.552;-122.600;2022-09-24T04:48:32;3.67;;;3.23;;
1360;SDS011;674;45.552;-122.600;2022-09-24T04:51:07;6.87;;;3.93;;
1360;SDS011;674;45.552;-122.600;2022-09-24T04:53:36;4.57;;;3.20;;
1360;SDS011;674;45.552;-122.600;2022-09-24T04:56:05;6.47;;;2.80;;
1360;SDS011;674;45.552;-122.600;2022-09-24T04:58:38;6.00;;;2.90;;
1360;SDS011;674;45.552;-122.600;2022-09-24T05:01:06;4.60;;;2.97;;
1360;SDS011;674;45.552;-122.600;2022-09-24T05:03:35;5.33;;;3.10;;
1360;SDS011;674;45.552;-122.600;2022-09-24T05:06:04;5.80;;;2.80;;
1360;SDS011;674;45.552;-122.600;2022-09-24T05:08:32;3.40;;;2.63;;
1360;SDS011;674;45.552;-122.600;2022-09-24T05:11:01;4.50;;;2.70;;
1360;SDS011;674;45.552;-122.600;2022-09-24T05:13:29;4.90;;;3.20;;
1360;SDS011;674;45.552;-122.600;2022-09-24T05:15:58;7.30;;;3.60;;
1360;SDS011;674;45.552;-122.600;2022-09-24T05:18:27;4.87;;;3.10;;
1360;SDS011;674;45.552;-122.600;2022-09-24T05:20:55;5.07;;;3.23;;
1360;SDS011;674;45.552;-122.600;2022-09-24T05:23:23;5.83;;;3.23;;
1360;SDS011;674;45.552;-122.600;2022-09-24T05:25:52;4.40;;;2.63;;
1360;SDS011;674;45.552;-122.600;2022-09-24T05:28:39;5.57;;;3.47;;
1360;SDS011;674;45.552;-122.600;2022-09-24T05:31:09;4.30;;;3.33;;
1360;SDS011;674;45.552;-122.600;2022-09-24T05:33:37;4.00;;;3.10;;
1360;SDS011;674;45.552;-122.600;2022-09-24T05:36:06;6.90;;;3.60;;
1360;SDS011;674;45.552;-122.600;2022-09-24T05:38:34;4.47;;;3.60;;
1360;SDS011;674;45.552;-122.600;2022-09-24T05:41:07;4.60;;;3.10;;
1360;SDS011;674;45.552;-122.600;2022-09-24T05:43:35;5.67;;;3.03;;
1360;SDS011;674;45.552;-122.600;2022-09-24T05:46:04;5.77;;;3.17;;
1360;SDS011;674;45.552;-122.600;2022-09-24T05:48:33;4.83;;;3.33;;
1360;SDS011;674;45.552;-122.600;2022-09-24T05:51:02;4.20;;;3.43;;
1360;SDS011;674;45.552;-122.600;2022-09-24T05:53:31;5.07;;;3.13;;
1360;SDS011;674;45.552;-122.600;2022-09-24T05:56:00;5.43;;;3.40;;
1360;SDS011;674;45.552;-122.600;2022-09-24T05:58:28;7.77;;;3.77;;
1360;SDS011;674;45.552;-122.600;2022-09-24T06:01:00;8.20;;;3.27;;
1360;SDS011;674;45.552;-122.600;2022-09-24T06:03:29;4.30;;;3.00;;
1360;SDS011;674;45.552;-122.600;2022-09-24T06:05:58;4.93;;;3.23;;
1360;SDS011;674;45.552;-122.600;2022-09-24T06:08:28;3.90;;;3.03;;
1360;SDS011;674;45.552;-122.600;2022-09-24T06:10:59;4.10;;;2.73;;
1360;SDS011;674;45.552;-122.600;2022-09-24T06:13:28;4.10;;;3.37;;
1360;SDS011;674;45.552;-122.600;2022-09-24T06:16:07;5.30;;;2.67;;
1360;SDS011;674;45.552;-122.600;2022-09-24T06:18:37;6.37;;;3.77;;
1360;SDS011;674;45.552;-122.600;2022-09-24T06:21:09;6.33;;;4.53;;
1360;SDS011;674;45.552;-122.600;2022-09-24T06:23:39;4.90;;;2.90;;
1360;SDS011;674;45.552;-122.600;2022-09-24T06:26:09;4.30;;;2.90;;
1360;SDS011;674;45.552;-122.600;2022-09-24T06:28:39;5.20;;;3.37;;
1360;SDS011;674;45.552;-122.600;2022-09-24T06:31:07;4.50;;;3.13;;
1360;SDS011;674;45.552;-122.600;2022-09-24T06:33:38;7.00;;;3.10;;
1360;SDS011;674;45.552;-122.600;2022-09-24T06:36:07;6.73;;;3.33;;
1360;SDS011;674;45.552;-122.600;2022-09-24T06:38:36;7.87;;;3.57;;
1360;SDS011;674;45.552;-122.600;2022-09-24T06:41:06;4.83;;;3.17;;
1360;SDS011;674;45.552;-122.600;2022-09-24T06:43:36;5.33;;;3.63;;
1360;SDS011;674;45.552;-122.600;2022-09-24T06:46:04;5.53;;;3.30;;
1360;SDS011;674;45.552;-122.600;2022-09-24T06:48:33;4.90;;;3.03;;
1360;SDS011;674;45.552;-122.600;2022-09-24T06:51:04;4.20;;;3.07;;
1360;SDS011;674;45.552;-122.600;2022-09-24T06:53:33;4.53;;;3.43;;
1360;SDS011;674;45.552;-122.600;2022-09-24T06:56:01;4.80;;;3.53;;
1360;SDS011;674;45.552;-122.600;2022-09-24T06:58:30;5.77;;;3.23;;
1360;SDS011;674;45.552;-122.600;2022-09-24T07:01:00;4.90;;;3.40;;
1360;SDS011;674;45.552;-122.600;2022-09-24T07:03:30;4.00;;;3.53;;
1360;SDS011;674;45.552;-122.600;2022-09-24T07:06:00;5.93;;;3.67;;
1360;SDS011;674;45.552;-122.600;2022-09-24T07:08:31;8.57;;;3.67;;
1360;SDS011;674;45.552;-122.600;2022-09-24T07:11:00;4.27;;;3.70;;
1360;SDS011;674;45.552;-122.600;2022-09-24T07:13:28;4.23;;;3.73;;
1360;SDS011;674;45.552;-122.600;2022-09-24T07:15:57;4.30;;;3.43;;
1360;SDS011;674;45.552;-122.600;2022-09-24T07:18:27;5.40;;;3.17;;
1360;SDS011;674;45.552;-122.600;2022-09-24T07:20:56;4.50;;;3.60;;
1360;SDS011;674;45.552;-122.600;2022-09-24T07:23:24;4.10;;;2.87;;
1360;SDS011;674;45.552;-122.600;2022-09-24T07:25:54;5.20;;;3.30;;
1360;SDS011;674;45.552;-122.600;2022-09-24T07:28:23;5.50;;;3.63;;
1360;SDS011;674;45.552;-122.600;2022-09-24T07:30:56;4.23;;;3.10;;
1360;SDS011;674;45.552;-122.600;2022-09-24T07:33:29;4.10;;;3.70;;
1360;SDS011;674;45.552;-122.600;2022-09-24T07:35:58;5.60;;;3.67;;
1360;SDS011;674;45.552;-122.600;2022-09-24T07:38:34;4.07;;;3.40;;
1360;SDS011;674;45.552;-122.600;2022-09-24T07:41:05;5.07;;;3.90;;
1360;SDS011;674;45.552;-122.600;2022-09-24T07:43:35;4.77;;;2.93;;
1360;SDS011;674;45.552;-122.600;2022-09-24T07:46:04;5.30;;;3.83;;
1360;SDS011;674;45.552;-122.600;2022-09-24T07:48:33;6.00;;;3.57;;
1360;SDS011;674;45.552;-122.600;2022-09-24T07:51:02;4.30;;;3.10;;
1360;SDS011;674;45.552;-122.600;2022-09-24T07:53:32;3.57;;;3.20;;
1360;SDS011;674;45.552;-122.600;2022-09-24T07:56:01;4.30;;;3.30;;
1360;SDS011;674;45.552;-122.600;2022-09-24T07:58:29;4.17;;;3.43;;
1360;SDS011;674;45.552;-122.600;2022-09-24T08:00:58;5.80;;;3.87;;
1360;SDS011;674;45.552;-122.600;2022-09-24T08:03:27;4.40;;;3.60;;
1360;SDS011;674;45.552;-122.600;2022-09-24T08:05:56;4.43;;;3.00;;
1360;SDS011;674;45.552;-122.600;2022-09-24T08:08:26;5.03;;;3.30;;
1360;SDS011;674;45.552;-122.600;2022-09-24T08:10:54;4.70;;;4.20;;
1360;SDS011;674;45.552;-122.600;2022-09-24T08:13:23;5.90;;;3.63;;
1360;SDS011;674;45.552;-122.600;2022-09-24T08:15:56;5.30;;;4.13;;
1360;SDS011;674;45.552;-122.600;2022-09-24T08:18:29;6.97;;;3.70;;
1360;SDS011;674;45.552;-122.600;2022-09-24T08:21:08;9.67;;;4.87;;
1360;SDS011;674;45.552;-122.600;2022-09-24T08:23:38;9.00;;;4.20;;
1360;SDS011;674;45.552;-122.600;2022-09-24T08:26:07;3.90;;;3.50;;
1360;SDS011;674;45.552;-122.600;2022-09-24T08:28:36;7.50;;;4.60;;
1360;SDS011;674;45.552;-122.600;2022-09-24T08:31:07;4.87;;;3.83;;
1360;SDS011;674;45.552;-122.600;2022-09-24T08:33:39;5.23;;;3.80;;
1360;SDS011;674;45.552;-122.600;2022-09-24T08:36:09;4.83;;;3.43;;
1360;SDS011;674;45.552;-122.600;2022-09-24T08:38:37;9.77;;;5.80;;
1360;SDS011;674;45.552;-122.600;2022-09-24T08:46:43;6.70;;;4.73;;
1360;SDS011;674;45.552;-122.600;2022-09-24T08:49:39;4.37;;;3.90;;
1360;SDS011;674;45.552;-122.600;2022-09-24T08:55:00;6.83;;;4.27;;
1360;SDS011;674;45.552;-122.600;2022-09-24T08:57:36;6.30;;;4.50;;
1360;SDS011;674;45.552;-122.600;2022-09-24T09:00:16;4.67;;;3.80;;
1360;SDS011;674;45.552;-122.600;2022-09-24T09:02:54;6.43;;;4.27;;
1360;SDS011;674;45.552;-122.600;2022-09-24T09:05:42;5.80;;;4.17;;
1360;SDS011;674;45.552;-122.600;2022-09-24T09:08:27;4.50;;;4.10;;
1360;SDS011;674;45.552;-122.600;2022-09-24T09:11:27;4.90;;;3.70;;
1360;SDS011;674;45.552;-122.600;2022-09-24T09:14:03;5.30;;;4.57;;
1360;SDS011;674;45.552;-122.600;2022-09-24T09:16:43;6.20;;;4.83;;
1360;SDS011;674;45.552;-122.600;2022-09-24T09:19:16;7.07;;;4.27;;
1360;SDS011;674;45.552;-122.600;2022-09-24T09:21:49;7.47;;;4.97;;
1360;SDS011;674;45.552;-122.600;2022-09-24T09:27:43;8.83;;;4.10;;
1360;SDS011;674;45.552;-122.600;2022-09-24T09:30:13;6.37;;;4.20;;
1360;SDS011;674;45.552;-122.600;2022-09-24T09:32:52;4.97;;;4.30;;
1360;SDS011;674;45.552;-122.600;2022-09-24T09:38:38;4.97;;;4.33;;
1360;SDS011;674;45.552;-122.600;2022-09-24T09:41:28;5.07;;;4.57;;
1360;SDS011;674;45.552;-122.600;2022-09-24T09:44:14;5.60;;;5.00;;
1360;SDS011;674;45.552;-122.600;2022-09-24T09:49:38;5.37;;;4.70;;
1360;SDS011;674;45.552;-122.600;2022-09-24T09:52:14;5.90;;;4.07;;
1360;SDS011;674;45.552;-122.600;2022-09-24T09:54:47;5.70;;;5.07;;
1360;SDS011;674;45.552;-122.600;2022-09-24T09:57:17;6.40;;;5.80;;
1360;SDS011;674;45.552;-122.600;2022-09-24T09:59:50;13.03;;;4.90;;
1360;SDS011;674;45.552;-122.600;2022-09-24T10:02:21;6.60;;;5.03;;
1360;SDS011;674;45.552;-122.600;2022-09-24T10:04:58;6.87;;;4.70;;
1360;SDS011;674;45.552;-122.600;2022-09-24T10:07:29;6.10;;;4.53;;
1360;SDS011;674;45.552;-122.600;2022-09-24T10:12:43;5.70;;;4.20;;
1360;SDS011;674;45.552;-122.600;2022-09-24T10:15:15;6.00;;;4.60;;
1360;SDS011;674;45.552;-122.600;2022-09-24T10:17:46;6.57;;;5.17;;
1360;SDS011;674;45.552;-122.600;2022-09-24T10:22:50;8.50;;;5.60;;
1360;SDS011;674;45.552;-122.600;2022-09-24T10:25:26;6.77;;;5.60;;
1360;SDS011;674;45.552;-122.600;2022-09-24T10:27:56;7.33;;;5.70;;
1360;SDS011;674;45.552;-122.600;2022-09-24T10:30:54;6.07;;;5.47;;
1360;SDS011;674;45.552;-122.600;2022-09-24T10:33:24;5.80;;;5.20;;
1360;SDS011;674;45.552;-122.600;2022-09-24T10:39:13;6.80;;;5.50;;
1360;SDS011;674;45.552;-122.600;2022-09-24T10:41:50;8.93;;;5.67;;
1360;SDS011;674;45.552;-122.600;2022-09-24T10:44:20;6.97;;;5.63;;
1360;SDS011;674;45.552;-122.600;2022-09-24T10:54:48;7.73;;;5.83;;
1360;SDS011;674;45.552;-122.600;2022-09-24T11:07:19;7.50;;;6.47;;
1360;SDS011;674;45.552;-122.600;2022-09-24T11:12:38;6.67;;;5.97;;
1360;SDS011;674;45.552;-122.600;2022-09-24T11:21:33;7.50;;;5.70;;
1360;SDS011;674;45.552;-122.600;2022-09-24T11:27:06;10.53;;;5.80;;
1360;SDS011;674;45.552;-122.600;2022-09-24T11:38:47;9.17;;;7.70;;
1360;SDS011;674;45.552;-122.600;2022-09-24T11:57:20;9.23;;;7.00;;
1360;SDS011;674;45.552;-122.600;2022-09-24T12:10:48;13.67;;;7.70;;
1360;SDS011;674;45.552;-122.600;2022-09-24T12:13:51;11.80;;;9.07;;
1360;SDS011;674;45.552;-122.600;2022-09-24T12:16:30;8.77;;;7.87;;
1360;SDS011;674;45.552;-122.600;2022-09-24T12:19:08;9.37;;;7.30;;
1360;SDS011;674;45.552;-122.600;2022-09-24T12:21:45;11.70;;;7.77;;
1360;SDS011;674;45.552;-122.600;2022-09-24T12:24:31;11.73;;;9.10;;
1360;SDS011;674;45.552;-122.600;2022-09-24T12:27:03;13.53;;;10.57;;
1360;SDS011;674;45.552;-122.600;2022-09-24T12:33:33;14.17;;;8.80;;
1360;SDS011;674;45.552;-122.600;2022-09-24T12:36:23;8.37;;;7.03;;
1360;SDS011;674;45.552;-122.600;2022-09-24T12:39:31;11.13;;;9.03;;
1360;SDS011;674;45.552;-122.600;2022-09-24T12:42:08;11.03;;;7.50;;
1360;SDS011;674;45.552;-122.600;2022-09-24T12:47:19;8.60;;;7.70;;
1360;SDS011;674;45.552;-122.600;2022-09-24T12:49:53;9.80;;;8.40;;
1360;SDS011;674;45.552;-122.600;2022-09-24T12:52:33;11.10;;;9.07;;
1360;SDS011;674;45.552;-122.600;2022-09-24T12:55:04;12.30;;;8.33;;
1360;SDS011;674;45.552;-122.600;2022-09-24T12:58:04;9.50;;;8.50;;
1360;SDS011;674;45.552;-122.600;2022-09-24T13:06:28;13.97;;;10.00;;
1360;SDS011;674;45.552;-122.600;2022-09-24T13:08:59;10.03;;;8.53;;
1360;SDS011;674;45.552;-122.600;2022-09-24T13:11:30;9.57;;;8.40;;
1360;SDS011;674;45.552;-122.600;2022-09-24T13:16:41;7.93;;;7.10;;
1360;SDS011;674;45.552;-122.600;2022-09-24T13:21:54;15.67;;;7.63;;
1360;SDS011;674;45.552;-122.600;2022-09-24T13:24:30;9.87;;;7.20;;
1360;SDS011;674;45.552;-122.600;2022-09-24T13:27:32;9.20;;;7.77;;
1360;SDS011;674;45.552;-122.600;2022-09-24T13:32:36;8.40;;;7.50;;
1360;SDS011;674;45.552;-122.600;2022-09-24T13:35:49;9.37;;;8.20;;
1360;SDS011;674;45.552;-122.600;2022-09-24T13:38:26;7.60;;;6.83;;
1360;SDS011;674;45.552;-122.600;2022-09-24T13:41:15;8.57;;;7.67;;
1360;SDS011;674;45.552;-122.600;2022-09-24T13:44:02;8.83;;;7.93;;
1360;SDS011;674;45.552;-122.600;2022-09-24T13:46:40;8.30;;;7.40;;
1360;SDS011;674;45.552;-122.600;2022-09-24T13:49:13;10.33;;;8.23;;
1360;SDS011;674;45.552;-122.600;2022-09-24T13:51:46;8.43;;;7.53;;
1360;SDS011;674;45.552;-122.600;2022-09-24T13:54:30;8.27;;;7.23;;
1360;SDS011;674;45.552;-122.600;2022-09-24T13:57:13;9.10;;;7.10;;
1360;SDS011;674;45.552;-122.600;2022-09-24T14:00:12;10.97;;;8.97;;
1360;SDS011;674;45.552;-122.600;2022-09-24T14:02:44;9.47;;;8.50;;
1360;SDS011;674;45.552;-122.600;2022-09-24T14:05:26;8.20;;;7.40;;
1360;SDS011;674;45.552;-122.600;2022-09-24T14:07:57;8.90;;;7.17;;
1360;SDS011;674;45.552;-122.600;2022-09-24T14:10:32;9.43;;;7.43;;
1360;SDS011;674;45.552;-122.600;2022-09-24T14:13:08;9.47;;;6.80;;
1360;SDS011;674;45.552;-122.600;2022-09-24T14:18:35;8.50;;;7.47;;
1360;SDS011;674;45.552;-122.600;2022-09-24T14:26:19;9.80;;;8.67;;
1360;SDS011;674;45.552;-122.600;2022-09-24T14:28:57;12.30;;;10.00;;
1360;SDS011;674;45.552;-122.600;2022-09-24T14:31:28;11.40;;;9.87;;
1360;SDS011;674;45.552;-122.600;2022-09-24T14:33:57;10.30;;;8.87;;
1360;SDS011;674;45.552;-122.600;2022-09-24T14:36:33;12.33;;;10.10;;
1360;SDS011;674;45.552;-122.600;2022-09-24T14:39:03;12.83;;;10.87;;
1360;SDS011;674;45.552;-122.600;2022-09-24T14:41:33;9.53;;;8.63;;
1360;SDS011;674;45.552;-122.600;2022-09-24T14:44:24;10.63;;;9.63;;
1360;SDS011;674;45.552;-122.600;2022-09-24T14:46:53;10.87;;;9.77;;
1360;SDS011;674;45.552;-122.600;2022-09-24T14:49:29;10.60;;;9.07;;
1360;SDS011;674;45.552;-122.600;2022-09-24T14:52:38;9.17;;;8.27;;
1360;SDS011;674;45.552;-122.600;2022-09-24T14:57:46;12.47;;;10.03;;
1360;SDS011;674;45.552;-122.600;2022-09-24T15:00:23;14.77;;;9.70;;
1360;SDS011;674;45.552;-122.600;2022-09-24T15:03:03;11.20;;;10.03;;
1360;SDS011;674;45.552;-122.600;2022-09-24T15:05:38;16.70;;;11.27;;
1360;SDS011;674;45.552;-122.600;2022-09-24T15:10:55;11.17;;;9.00;;
1360;SDS011;674;45.552;-122.600;2022-09-24T15:13:44;13.50;;;11.30;;
1360;SDS011;674;45.552;-122.600;2022-09-24T15:21:34;11.07;;;8.60;;
1360;SDS011;674;45.552;-122.600;2022-09-24T15:24:15;10.30;;;8.57;;
1360;SDS011;674;45.552;-122.600;2022-09-24T15:26:46;10.83;;;9.73;;
1360;SDS011;674;45.552;-122.600;2022-09-24T15:29:27;14.63;;;9.73;;
1360;SDS011;674;45.552;-122.600;2022-09-24T15:31:56;12.47;;;9.63;;
1360;SDS011;674;45.552;-122.600;2022-09-24T15:34:25;10.30;;;9.20;;
1360;SDS011;674;45.552;-122.600;2022-09-24T15:36:56;10.17;;;7.70;;
1360;SDS011;674;45.552;-122.600;2022-09-24T15:39:25;13.37;;;9.27;;
1360;SDS011;674;45.552;-122.600;2022-09-24T15:41:55;8.17;;;7.37;;
1360;SDS011;674;45.552;-122.600;2022-09-24T15:44:24;12.70;;;7.87;;
1360;SDS011;674;45.552;-122.600;2022-09-24T15:46:59;9.83;;;8.00;;
1360;SDS011;674;45.552;-122.600;2022-09-24T15:49:27;9.93;;;7.40;;
1360;SDS011;674;45.552;-122.600;2022-09-24T15:51:59;8.83;;;6.90;;
1360;SDS011;674;45.552;-122.600;2022-09-24T15:54:32;10.93;;;8.20;;
1360;SDS011;674;45.552;-122.600;2022-09-24T15:57:01;8.13;;;7.07;;
1360;SDS011;674;45.552;-122.600;2022-09-24T15:59:30;9.50;;;7.57;;
1360;SDS011;674;45.552;-122.600;2022-09-24T16:02:01;10.43;;;7.97;;
1360;SDS011;674;45.552;-122.600;2022-09-24T16:04:38;11.00;;;8.33;;
1360;SDS011;674;45.552;-122.600;2022-09-24T16:07:06;11.13;;;7.80;;
1360;SDS011;674;45.552;-122.600;2022-09-24T16:09:34;10.00;;;8.20;;
1360;SDS011;674;45.552;-122.600;2022-09-24T16:12:03;10.80;;;7.83;;
1360;SDS011;674;45.552;-122.600;2022-09-24T16:14:32;10.83;;;7.00;;
1360;SDS011;674;45.552;-122.600;2022-09-24T16:17:00;10.73;;;7.80;;
1360;SDS011;674;45.552;-122.600;2022-09-24T16:19:28;12.37;;;7.93;;
1360;SDS011;674;45.552;-122.600;2022-09-24T16:21:57;10.93;;;7.40;;
1360;SDS011;674;45.552;-122.600;2022-09-24T16:24:25;12.10;;;7.10;;
1360;SDS011;674;45.552;-122.600;2022-09-24T16:26:54;8.23;;;6.47;;
1360;SDS011;674;45.552;-122.600;2022-09-24T16:29:22;9.87;;;7.17;;
1360;SDS011;674;45.552;-122.600;2022-09-24T16:31:51;13.00;;;7.53;;
1360;SDS011;674;45.552;-122.600;2022-09-24T16:34:19;12.33;;;7.73;;
1360;SDS011;674;45.552;-122.600;2022-09-24T16:36:47;10.07;;;6.87;;
1360;SDS011;674;45.552;-122.600;2022-09-24T16:39:16;8.70;;;7.30;;
1360;SDS011;674;45.552;-122.600;2022-09-24T16:41:49;11.93;;;7.83;;
1360;SDS011;674;45.552;-122.600;2022-09-24T16:44:18;9.10;;;7.13;;
1360;SDS011;674;45.552;-122.600;2022-09-24T16:46:46;9.53;;;7.50;;
1360;SDS011;674;45.552;-122.600;2022-09-24T16:49:14;8.10;;;7.17;;
1360;SDS011;674;45.552;-122.600;2022-09-24T16:51:43;11.03;;;7.33;;
1360;SDS011;674;45.552;-122.600;2022-09-24T16:54:11;9.33;;;7.80;;
1360;SDS011;674;45.552;-122.600;2022-09-24T16:56:40;11.70;;;7.60;;
1360;SDS011;674;45.552;-122.600;2022-09-24T16:59:09;12.57;;;8.90;;
1360;SDS011;674;45.552;-122.600;2022-09-24T17:01:38;9.90;;;7.10;;
1360;SDS011;674;45.552;-122.600;2022-09-24T17:04:08;9.80;;;7.30;;
1360;SDS011;674;45.552;-122.600;2022-09-24T17:06:37;9.57;;;7.73;;
1360;SDS011;674;45.552;-122.600;2022-09-24T17:09:06;7.47;;;6.70;;
1360;SDS011;674;45.552;-122.600;2022-09-24T17:11:54;9.00;;;6.50;;
1360;SDS011;674;45.552;-122.600;2022-09-24T17:14:23;8.67;;;6.30;;
1360;SDS011;674;45.552;-122.600;2022-09-24T17:16:52;10.60;;;7.10;;
1360;SDS011;674;45.552;-122.600;2022-09-24T17:19:20;10.23;;;7.30;;
1360;SDS011;674;45.552;-122.600;2022-09-24T17:21:49;10.27;;;7.13;;
1360;SDS011;674;45.552;-122.600;2022-09-24T17:24:18;11.90;;;7.47;;
1360;SDS011;674;45.552;-122.600;2022-09-24T17:26:47;9.50;;;6.60;;
1360;SDS011;674;45.552;-122.600;2022-09-24T17:29:16;8.30;;;7.50;;
1360;SDS011;674;45.552;-122.600;2022-09-24T17:31:47;7.40;;;6.20;;
1360;SDS011;674;45.552;-122.600;2022-09-24T17:34:15;10.70;;;7.23;;
1360;SDS011;674;45.552;-122.600;2022-09-24T17:36:44;7.20;;;6.50;;
1360;SDS011;674;45.552;-122.600;2022-09-24T17:39:13;8.03;;;6.53;;
1360;SDS011;674;45.552;-122.600;2022-09-24T17:41:41;10.17;;;6.50;;
1360;SDS011;674;45.552;-122.600;2022-09-24T17:44:10;7.93;;;6.37;;
1360;SDS011;674;45.552;-122.600;2022-09-24T17:46:39;8.23;;;6.10;;
1360;SDS011;674;45.552;-122.600;2022-09-24T17:49:08;8.83;;;6.67;;
1360;SDS011;674;45.552;-122.600;2022-09-24T17:51:37;8.63;;;7.03;;
1360;SDS011;674;45.552;-122.600;2022-09-24T17:54:12;8.57;;;6.57;;